createdAt,value
2023-02-19T00:00:41.086Z,61.55
2023-02-19T00:03:25.906Z,61.56
2023-02-19T00:06:10.754Z,61.81
2023-02-19T00:08:55.805Z,60.50
2023-02-19T00:11:40.640Z,61.09
2023-02-19T00:14:25.615Z,60.71
2023-02-19T00:17:10.502Z,63.12
2023-02-19T00:19:55.419Z,62.63
2023-02-19T00:22:40.037Z,61.50
2023-02-19T00:25:24.976Z,61.02
2023-02-19T00:28:09.840Z,60.89
2023-02-19T00:30:54.633Z,60.78
2023-02-19T00:33:39.480Z,62.41
2023-02-19T00:36:24.365Z,61.31
2023-02-19T00:39:09.381Z,62.16
2023-02-19T00:41:54.172Z,61.00
2023-02-19T00:44:38.975Z,60.73
2023-02-19T00:47:23.817Z,60.52
2023-02-19T00:50:08.765Z,61.15
2023-02-19T00:52:53.601Z,62.72
2023-02-19T00:55:38.620Z,62.30
2023-02-19T00:58:23.541Z,63.13
2023-02-19T01:01:08.652Z,63.05
2023-02-19T01:03:53.780Z,61.91
2023-02-19T01:06:38.636Z,62.52
2023-02-19T01:09:23.686Z,62.99
2023-02-19T01:12:08.367Z,62.46
2023-02-19T01:14:53.328Z,63.10
2023-02-19T01:17:38.150Z,62.96
2023-02-19T01:20:23.127Z,62.23
2023-02-19T01:23:08.052Z,63.23
2023-02-19T01:25:52.891Z,63.06
2023-02-19T01:28:37.865Z,64.71
2023-02-19T01:31:22.799Z,65.24
2023-02-19T01:34:08.009Z,65.25
2023-02-19T01:36:52.878Z,65.81
2023-02-19T01:39:37.955Z,66.68
2023-02-19T01:42:22.820Z,66.13
2023-02-19T01:45:07.761Z,64.97
2023-02-19T01:47:52.593Z,65.96
2023-02-19T01:50:37.501Z,65.83
2023-02-19T01:53:22.472Z,65.53
2023-02-19T01:56:07.415Z,66.64
2023-02-19T01:58:52.398Z,67.15
2023-02-19T02:01:37.219Z,65.99
2023-02-19T02:04:22.145Z,66.27
2023-02-19T02:07:06.886Z,66.48
2023-02-19T02:09:51.842Z,66.37
2023-02-19T02:12:36.809Z,65.32
2023-02-19T02:15:21.619Z,65.63
2023-02-19T02:18:06.550Z,64.80
2023-02-19T02:20:51.414Z,65.84
2023-02-19T02:23:36.425Z,64.65
2023-02-19T02:26:21.344Z,64.74
2023-02-19T02:29:06.258Z,66.03
2023-02-19T02:31:51.178Z,66.24
2023-02-19T02:34:36.466Z,67.59
2023-02-19T02:37:21.362Z,66.19
2023-02-19T02:40:06.193Z,67.14
2023-02-19T02:42:51.179Z,67.23
2023-02-19T02:45:36.105Z,66.09
2023-02-19T02:48:21.334Z,66.26
2023-02-19T02:51:06.121Z,65.20
2023-02-19T02:53:51.024Z,67.07
2023-02-19T02:56:35.854Z,66.03
2023-02-19T02:59:20.747Z,66.32
2023-02-19T03:02:05.761Z,66.64
2023-02-19T03:04:50.760Z,67.35
2023-02-19T03:07:35.741Z,67.98
2023-02-19T03:10:20.491Z,68.18
2023-02-19T03:13:05.352Z,67.92
2023-02-19T03:15:50.081Z,67.94
2023-02-19T03:18:34.928Z,68.33
2023-02-19T03:21:19.804Z,66.28
2023-02-19T03:24:04.609Z,66.77
2023-02-19T03:26:49.618Z,66.43
2023-02-19T03:29:34.578Z,66.07
2023-02-19T03:32:19.506Z,66.24
2023-02-19T03:35:04.325Z,67.17
2023-02-19T03:37:49.302Z,67.44
2023-02-19T03:40:34.303Z,68.72
2023-02-19T03:43:19.245Z,67.93
2023-02-19T03:46:03.966Z,67.43
2023-02-19T03:48:48.929Z,66.42
2023-02-19T03:51:33.848Z,66.86
2023-02-19T03:54:18.609Z,66.02
2023-02-19T03:57:03.585Z,65.72
2023-02-19T03:59:48.630Z,65.78
2023-02-19T04:02:33.578Z,65.47
2023-02-19T04:05:18.337Z,66.11
2023-02-19T04:08:03.237Z,65.77
2023-02-19T04:10:48.127Z,65.83
2023-02-19T04:13:33.007Z,66.50
2023-02-19T04:16:17.924Z,67.23
2023-02-19T04:19:02.827Z,68.54
2023-02-19T04:21:47.719Z,68.75
2023-02-19T04:24:32.474Z,67.08
2023-02-19T04:27:17.507Z,66.89
2023-02-19T04:30:02.424Z,66.36
2023-02-19T04:32:47.797Z,66.99
2023-02-19T04:35:32.637Z,67.03
2023-02-19T04:38:17.456Z,67.76
2023-02-19T04:41:02.317Z,68.99
2023-02-19T04:43:47.101Z,67.74
2023-02-19T04:46:32.107Z,66.76
2023-02-19T04:49:16.903Z,65.91
2023-02-19T04:52:01.907Z,65.63
2023-02-19T04:54:46.698Z,66.39
2023-02-19T04:57:31.512Z,66.73
2023-02-19T05:00:16.316Z,67.13
2023-02-19T05:03:01.348Z,65.89
2023-02-19T05:05:46.209Z,65.09
2023-02-19T05:08:31.034Z,64.74
2023-02-19T05:11:15.972Z,66.09
2023-02-19T05:14:00.843Z,65.22
2023-02-19T05:16:45.820Z,65.22
2023-02-19T05:19:30.601Z,65.16
2023-02-19T05:22:15.595Z,66.23
2023-02-19T05:25:00.343Z,65.95
2023-02-19T05:27:45.215Z,66.77
2023-02-19T05:30:30.046Z,66.24
2023-02-19T05:33:14.920Z,67.46
2023-02-19T05:35:59.897Z,65.46
2023-02-19T05:38:44.738Z,65.45
2023-02-19T05:41:29.614Z,66.59
2023-02-19T05:44:14.387Z,66.81
2023-02-19T05:46:59.280Z,65.79
2023-02-19T05:49:44.052Z,66.03
2023-02-19T05:52:28.956Z,66.19
2023-02-19T05:55:13.692Z,65.92
2023-02-19T05:57:58.732Z,66.70
2023-02-19T06:00:43.627Z,66.89
2023-02-19T06:03:28.518Z,66.88
2023-02-19T06:06:13.408Z,65.72
2023-02-19T06:08:58.279Z,64.95
2023-02-19T06:11:43.216Z,64.95
2023-02-19T06:14:28.034Z,64.36
2023-02-19T06:17:12.810Z,64.66
2023-02-19T06:19:57.599Z,64.20
2023-02-19T06:22:42.525Z,63.62
2023-02-19T06:25:27.480Z,63.41
2023-02-19T06:28:12.272Z,64.09
2023-02-19T06:30:57.154Z,64.25
2023-02-19T06:33:42.062Z,65.36
2023-02-19T06:36:27.104Z,64.55
2023-02-19T06:39:11.949Z,66.14
2023-02-19T06:41:56.653Z,64.60
2023-02-19T06:44:41.420Z,64.95
2023-02-19T06:47:26.417Z,65.48
2023-02-19T06:50:11.313Z,65.82
2023-02-19T06:52:56.181Z,66.86
2023-02-19T06:55:41.249Z,68.09
2023-02-19T06:58:26.052Z,68.46
2023-02-19T07:01:11.451Z,66.94
2023-02-19T07:03:56.335Z,66.06
2023-02-19T07:06:41.276Z,66.39
2023-02-19T07:09:25.999Z,66.60
2023-02-19T07:12:10.773Z,66.08
2023-02-19T07:14:55.556Z,66.07
2023-02-19T07:17:40.501Z,65.15
2023-02-19T07:20:25.506Z,64.55
2023-02-19T07:23:10.387Z,64.80
2023-02-19T07:25:55.248Z,65.29
2023-02-19T07:28:40.213Z,64.49
2023-02-19T07:31:25.140Z,63.29
2023-02-19T07:34:10.378Z,63.39
2023-02-19T07:36:55.337Z,61.76
2023-02-19T07:39:40.303Z,62.45
2023-02-19T07:42:25.223Z,61.85
2023-02-19T07:45:10.325Z,60.99
2023-02-19T07:47:55.045Z,60.71
2023-02-19T07:50:40.046Z,60.51
2023-02-19T07:53:24.870Z,62.43
2023-02-19T07:56:09.721Z,62.22
2023-02-19T07:58:54.476Z,62.76
2023-02-19T08:01:39.378Z,60.88
2023-02-19T08:04:24.185Z,60.90
2023-02-19T08:07:09.017Z,61.56
2023-02-19T08:09:53.980Z,63.92
2023-02-19T08:12:38.804Z,62.31
2023-02-19T08:15:23.796Z,60.84
2023-02-19T08:18:08.660Z,59.92
2023-02-19T08:20:53.615Z,59.72
2023-02-19T08:23:38.427Z,59.37
2023-02-19T08:26:23.260Z,61.64
2023-02-19T08:29:08.158Z,60.51
2023-02-19T08:31:53.078Z,59.75
2023-02-19T08:34:37.963Z,58.95
2023-02-19T08:37:22.617Z,59.72
2023-02-19T08:40:07.593Z,58.79
2023-02-19T08:42:52.350Z,57.30
2023-02-19T08:45:37.325Z,56.86
2023-02-19T08:48:22.237Z,55.33
2023-02-19T08:51:07.118Z,56.22
2023-02-19T08:53:51.949Z,55.28
2023-02-19T08:56:36.789Z,56.69
2023-02-19T08:59:21.756Z,57.35
2023-02-19T09:02:06.474Z,55.68
2023-02-19T09:04:51.424Z,54.39
2023-02-19T09:07:36.449Z,54.76
2023-02-19T09:10:21.472Z,54.10
2023-02-19T09:13:06.269Z,58.19
2023-02-19T09:15:51.395Z,57.18
2023-02-19T09:18:36.200Z,56.29
2023-02-19T09:21:21.104Z,54.11
2023-02-19T09:24:06.106Z,54.02
2023-02-19T09:26:50.881Z,53.33
2023-02-19T09:29:35.794Z,53.12
2023-02-19T09:32:20.578Z,54.24
2023-02-19T09:35:05.486Z,53.27
2023-02-19T09:37:50.384Z,52.82
2023-02-19T09:40:35.345Z,53.59
2023-02-19T09:43:20.155Z,52.80
2023-02-19T09:46:05.089Z,52.27
2023-02-19T09:48:50.023Z,51.51
2023-02-19T09:51:34.921Z,50.31
2023-02-19T09:54:19.890Z,50.18
2023-02-19T09:57:04.786Z,51.91
2023-02-19T09:59:50.157Z,52.89
2023-02-19T10:02:35.049Z,52.71
2023-02-19T10:05:20.075Z,53.25
2023-02-19T10:08:04.939Z,52.81
2023-02-19T10:10:50.006Z,53.55
2023-02-19T10:13:34.951Z,52.81
2023-02-19T10:16:20.655Z,53.41
2023-02-19T10:19:05.624Z,52.61
2023-02-19T10:21:50.953Z,51.39
2023-02-19T10:24:38.413Z,51.68
2023-02-19T10:27:23.799Z,49.75
2023-02-19T10:30:08.711Z,49.22
2023-02-19T10:32:53.589Z,50.21
2023-02-19T10:35:38.445Z,50.01
2023-02-19T10:38:23.285Z,52.03
2023-02-19T10:41:08.164Z,51.71
2023-02-19T10:43:53.023Z,50.13
2023-02-19T10:46:37.902Z,48.88
2023-02-19T10:49:22.673Z,49.78
2023-02-19T10:52:07.616Z,50.55
2023-02-19T10:54:52.538Z,48.93
2023-02-19T10:57:37.429Z,47.67
2023-02-19T11:00:22.220Z,46.79
2023-02-19T11:03:07.167Z,48.40
2023-02-19T11:05:52.138Z,46.95
2023-02-19T11:08:37.197Z,46.88
2023-02-19T11:11:21.963Z,43.70
2023-02-19T11:14:06.805Z,43.75
2023-02-19T11:16:51.683Z,43.84
2023-02-19T11:19:36.573Z,42.49
2023-02-19T11:22:21.534Z,43.58
2023-02-19T11:25:06.364Z,43.40
2023-02-19T11:27:51.341Z,41.53
2023-02-19T11:30:36.555Z,42.28
2023-02-19T11:33:21.482Z,42.91
2023-02-19T11:36:06.277Z,44.38
2023-02-19T11:38:51.215Z,43.09
2023-02-19T11:41:36.121Z,41.67
2023-02-19T11:44:21.308Z,40.84
2023-02-19T11:47:06.210Z,42.83
2023-02-19T11:49:50.975Z,40.20
2023-02-19T11:52:35.826Z,39.72
2023-02-19T11:55:20.647Z,39.36
2023-02-19T11:58:05.505Z,38.64
2023-02-19T12:00:50.425Z,39.05
2023-02-19T12:03:35.406Z,39.75
2023-02-19T12:06:20.451Z,38.00
2023-02-19T12:09:05.106Z,39.20
2023-02-19T12:11:50.016Z,37.93
2023-02-19T12:14:34.809Z,36.53
2023-02-19T12:17:19.753Z,38.60
2023-02-19T12:20:04.535Z,39.08
2023-02-19T12:22:49.653Z,38.09
2023-02-19T12:25:34.888Z,38.70
2023-02-19T12:28:19.986Z,38.17
2023-02-19T12:31:05.109Z,36.92
2023-02-19T12:33:50.030Z,37.07
2023-02-19T12:36:34.992Z,38.25
2023-02-19T12:39:19.798Z,37.87
2023-02-19T12:42:04.609Z,38.84
2023-02-19T12:44:49.511Z,37.47
2023-02-19T12:47:34.466Z,36.48
2023-02-19T12:50:19.308Z,38.12
2023-02-19T12:53:04.193Z,36.81
2023-02-19T12:55:49.321Z,36.35
2023-02-19T12:58:34.092Z,35.35
2023-02-19T13:01:19.255Z,34.85
2023-02-19T13:04:04.047Z,35.24
2023-02-19T13:06:50.425Z,35.07
2023-02-19T13:09:36.004Z,34.95
2023-02-19T13:12:20.918Z,34.70
2023-02-19T13:15:05.819Z,35.22
2023-02-19T13:17:50.652Z,35.01
2023-02-19T13:20:35.670Z,34.66
2023-02-19T13:23:20.595Z,33.75
2023-02-19T13:26:05.451Z,33.26
2023-02-19T13:28:50.304Z,33.62
2023-02-19T13:31:35.597Z,31.71
2023-02-19T13:34:20.869Z,31.57
2023-02-19T13:37:05.761Z,32.09
2023-02-19T13:39:50.634Z,31.74
2023-02-19T13:42:35.970Z,32.35
2023-02-19T13:45:21.151Z,31.14
2023-02-19T13:48:06.288Z,30.04
2023-02-19T13:50:51.063Z,29.29
2023-02-19T13:53:35.949Z,28.67
2023-02-19T13:56:20.850Z,27.28
2023-02-19T13:59:05.757Z,29.19
2023-02-19T14:01:50.620Z,29.12
2023-02-19T14:04:35.582Z,30.04
2023-02-19T14:07:20.427Z,30.22
2023-02-19T14:10:05.237Z,29.73
2023-02-19T14:12:50.061Z,28.47
2023-02-19T14:15:35.034Z,27.93
2023-02-19T14:18:19.793Z,27.16
2023-02-19T14:21:04.620Z,27.33
2023-02-19T14:23:49.509Z,27.70
2023-02-19T14:26:34.338Z,27.69
2023-02-19T14:29:19.293Z,27.20
2023-02-19T14:32:04.134Z,27.14
2023-02-19T14:34:48.848Z,26.03
2023-02-19T14:37:33.602Z,25.92
2023-02-19T14:40:18.682Z,27.90
2023-02-19T14:43:03.416Z,29.89
2023-02-19T14:45:48.369Z,30.73
2023-02-19T14:48:33.357Z,32.47
2023-02-19T14:51:18.260Z,35.02
2023-02-19T14:54:03.097Z,36.50
2023-02-19T14:56:47.920Z,36.58
2023-02-19T14:59:32.892Z,34.67
2023-02-19T15:02:17.721Z,34.32
2023-02-19T15:05:02.735Z,33.45
2023-02-19T15:07:48.000Z,33.63
2023-02-19T15:10:32.905Z,33.43
2023-02-19T15:13:17.814Z,33.97
2023-02-19T15:16:02.739Z,34.86
2023-02-19T15:18:47.600Z,36.32
2023-02-19T15:21:32.465Z,38.23
2023-02-19T15:24:17.213Z,39.38
2023-02-19T15:27:01.943Z,39.83
2023-02-19T15:29:46.833Z,40.50
2023-02-19T15:32:31.669Z,39.86
2023-02-19T15:35:16.663Z,40.97
2023-02-19T15:38:01.618Z,41.44
2023-02-19T15:40:46.553Z,42.33
2023-02-19T15:43:31.568Z,42.56
2023-02-19T15:46:16.396Z,42.64
2023-02-19T15:49:01.405Z,41.89
2023-02-19T15:51:46.277Z,42.69
2023-02-19T15:54:31.304Z,41.66
2023-02-19T15:57:16.251Z,42.85
2023-02-19T16:00:01.273Z,42.70
2023-02-19T16:02:46.191Z,44.20
2023-02-19T16:05:31.034Z,43.54
2023-02-19T16:08:15.996Z,41.89
2023-02-19T16:11:00.863Z,42.17
2023-02-19T16:13:45.854Z,42.10
2023-02-19T16:16:30.824Z,41.48
2023-02-19T16:19:15.624Z,41.90
2023-02-19T16:22:00.390Z,41.92
2023-02-19T16:24:45.373Z,42.15
2023-02-19T16:27:30.291Z,42.50
2023-02-19T16:30:15.268Z,42.46
2023-02-19T16:33:00.159Z,42.31
2023-02-19T16:35:45.088Z,42.38
2023-02-19T16:38:29.978Z,42.83
2023-02-19T16:41:14.692Z,43.80
2023-02-19T16:43:59.596Z,43.45
2023-02-19T16:46:44.382Z,44.35
2023-02-19T16:49:29.285Z,45.01
2023-02-19T16:52:14.069Z,44.75
2023-02-19T16:54:58.942Z,47.67
2023-02-19T16:57:43.934Z,47.48
2023-02-19T17:00:28.781Z,48.52
2023-02-19T17:03:13.823Z,48.02
2023-02-19T17:05:58.690Z,46.93
2023-02-19T17:08:43.626Z,47.74
2023-02-19T17:11:28.684Z,47.98
2023-02-19T17:14:13.849Z,49.18
2023-02-19T17:17:01.117Z,48.23
2023-02-19T17:19:47.028Z,49.03
2023-02-19T17:22:31.912Z,48.92
2023-02-19T17:25:16.779Z,49.28
2023-02-19T17:28:01.849Z,48.68
2023-02-19T17:30:46.760Z,48.64
2023-02-19T17:33:31.511Z,48.80
2023-02-19T17:36:16.433Z,49.04
2023-02-19T17:39:01.943Z,49.46
2023-02-19T17:41:46.884Z,50.08
2023-02-19T17:44:31.906Z,49.93
2023-02-19T17:47:17.123Z,49.79
2023-02-19T17:50:01.848Z,49.21
2023-02-19T17:52:47.310Z,51.47
2023-02-19T17:55:32.562Z,51.09
2023-02-19T17:58:17.301Z,51.11
2023-02-19T18:01:02.412Z,51.93
2023-02-19T18:03:47.388Z,52.23
2023-02-19T18:06:32.629Z,52.06
2023-02-19T18:09:17.773Z,51.24
2023-02-19T18:12:02.999Z,52.21
2023-02-19T18:14:48.071Z,52.34
2023-02-19T18:17:32.886Z,52.48
2023-02-19T18:20:17.837Z,51.95
2023-02-19T18:23:02.753Z,51.46
2023-02-19T18:25:47.754Z,51.28
2023-02-19T18:28:32.686Z,50.93
2023-02-19T18:31:17.528Z,51.22
2023-02-19T18:34:02.901Z,51.43
2023-02-19T18:36:47.785Z,52.45
2023-02-19T18:39:33.260Z,52.60
2023-02-19T18:42:18.594Z,52.69
2023-02-19T18:45:03.516Z,51.64
2023-02-19T18:47:48.385Z,52.90
2023-02-19T18:50:33.362Z,51.31
2023-02-19T18:53:18.478Z,51.39
2023-02-19T18:56:03.729Z,51.12
2023-02-19T18:58:50.347Z,51.39
2023-02-19T19:01:35.701Z,51.20
2023-02-19T19:04:21.332Z,52.74
2023-02-19T19:07:06.711Z,53.46
2023-02-19T19:09:51.471Z,52.35
2023-02-19T19:12:36.616Z,52.50
2023-02-19T19:15:21.833Z,52.13
2023-02-19T19:18:06.691Z,52.26
2023-02-19T19:20:51.430Z,51.65
2023-02-19T19:23:36.481Z,52.02
2023-02-19T19:26:21.264Z,51.68
2023-02-19T19:29:06.232Z,51.59
2023-02-19T19:31:51.310Z,50.71
2023-02-19T19:34:36.545Z,51.92
2023-02-19T19:37:21.641Z,52.30
2023-02-19T19:40:06.605Z,52.46
2023-02-19T19:42:51.849Z,51.93
2023-02-19T19:45:36.880Z,52.47
2023-02-19T19:48:21.720Z,53.80
2023-02-19T19:51:06.546Z,53.80
2023-02-19T19:53:51.411Z,53.91
2023-02-19T19:56:36.481Z,53.57
2023-02-19T19:59:21.249Z,54.17
2023-02-19T20:02:06.177Z,53.42
2023-02-19T20:04:51.009Z,53.08
2023-02-19T20:07:35.838Z,53.96
2023-02-19T20:10:20.738Z,54.36
2023-02-19T20:13:05.556Z,54.20
2023-02-19T20:15:51.156Z,55.15
2023-02-19T20:18:36.339Z,53.98
2023-02-19T20:21:21.712Z,55.14
2023-02-19T20:24:06.516Z,53.66
2023-02-19T20:26:51.391Z,55.41
2023-02-19T20:29:36.251Z,55.07
2023-02-19T20:32:21.300Z,55.29
2023-02-19T20:35:06.174Z,56.60
2023-02-19T20:37:50.948Z,55.65
2023-02-19T20:40:35.929Z,55.83
2023-02-19T20:43:20.754Z,54.29
2023-02-19T20:46:05.882Z,54.74
2023-02-19T20:48:51.950Z,54.11
2023-02-19T20:51:36.856Z,53.74
2023-02-19T20:54:21.703Z,54.59
2023-02-19T20:57:06.763Z,54.89
2023-02-19T20:59:51.625Z,53.57
2023-02-19T21:02:36.611Z,54.36
2023-02-19T21:05:21.567Z,53.89
2023-02-19T21:08:06.323Z,54.56
2023-02-19T21:10:51.282Z,54.74
2023-02-19T21:13:36.110Z,54.56
2023-02-19T21:16:21.013Z,54.67
2023-02-19T21:19:05.819Z,53.80
2023-02-19T21:21:50.729Z,54.34
2023-02-19T21:24:35.524Z,54.43
2023-02-19T21:27:20.469Z,55.19
2023-02-19T21:30:05.489Z,55.69
2023-02-19T21:32:50.192Z,55.01
2023-02-19T21:35:35.092Z,55.37
2023-02-19T21:38:20.043Z,54.67
2023-02-19T21:41:04.998Z,55.44
2023-02-19T21:43:49.884Z,54.34
2023-02-19T21:46:34.898Z,55.28
2023-02-19T21:49:19.765Z,54.46
2023-02-19T21:52:04.675Z,54.91
2023-02-19T21:54:49.711Z,54.68
2023-02-19T21:57:34.520Z,55.00
2023-02-19T22:00:19.448Z,55.45
2023-02-19T22:03:05.398Z,54.80
2023-02-19T22:05:50.543Z,54.72
2023-02-19T22:08:35.308Z,55.13
2023-02-19T22:11:20.271Z,55.32
2023-02-19T22:14:05.186Z,54.45
2023-02-19T22:16:50.052Z,54.84
2023-02-19T22:19:34.922Z,53.84
2023-02-19T22:22:19.756Z,53.78
2023-02-19T22:25:04.745Z,53.45
2023-02-19T22:27:49.552Z,53.10
2023-02-19T22:30:34.409Z,53.40
2023-02-19T22:33:19.212Z,53.26
2023-02-19T22:36:04.101Z,54.01
2023-02-19T22:38:49.049Z,54.09
2023-02-19T22:41:33.797Z,55.43
2023-02-19T22:44:18.837Z,53.93
2023-02-19T22:47:03.591Z,55.13
2023-02-19T22:49:48.679Z,57.12
2023-02-19T22:52:33.441Z,54.50
2023-02-19T22:55:18.514Z,55.06
2023-02-19T22:58:03.357Z,53.62
2023-02-19T23:00:48.227Z,53.56
2023-02-19T23:03:33.080Z,54.30
2023-02-19T23:06:17.876Z,57.43
2023-02-19T23:09:02.811Z,56.24
2023-02-19T23:11:47.580Z,53.88
2023-02-19T23:14:32.452Z,53.72
2023-02-19T23:17:17.307Z,55.41
2023-02-19T23:20:02.244Z,56.10
2023-02-19T23:22:47.184Z,57.55
2023-02-19T23:25:32.132Z,55.66
2023-02-19T23:28:16.935Z,54.48
2023-02-19T23:31:01.765Z,54.12
2023-02-19T23:33:46.789Z,54.19
2023-02-19T23:36:31.771Z,53.21
2023-02-19T23:39:16.653Z,54.91
2023-02-19T23:42:01.485Z,53.73
2023-02-19T23:44:46.417Z,53.97
2023-02-19T23:47:31.129Z,55.24
2023-02-19T23:50:16.025Z,53.98
2023-02-19T23:53:00.910Z,54.96
2023-02-19T23:55:45.858Z,53.83
2023-02-19T23:58:30.805Z,53.68
